Time;durP1;ratioP1;P1;durP2;ratioP2;P2;SDS_P1;SDS_P2;PMS_P1;PMS_P2;Temp;Humidity;BMP_temperature;BMP_pressure;BME280_temperature;BME280_humidity;BME280_pressure;Samples;Min_cycle;Max_cycle;Signal;HPM_P1;HPM_P2
2023/05/28 00:01:46;;;;;;;12.60;11.80;;;;;;;15.08;100.00;92749.81;5012508;28;20187;-76
2023/05/28 00:04:12;;;;;;;11.83;11.03;;;;;;;15.15;100.00;92757.25;5012031;28;20223;-76
2023/05/28 00:06:37;;;;;;;12.67;11.73;;;;;;;15.58;100.00;92759.03;5011666;28;20194;-76
2023/05/28 00:09:03;;;;;;;11.53;10.67;;;;;;;15.76;100.00;92765.13;5011071;28;20295;-75
2023/05/28 00:11:28;;;;;;;12.73;11.90;;;;;;;15.71;100.00;92765.25;5011442;28;20235;-76
2023/05/28 00:13:53;;;;;;;12.10;11.17;;;;;;;15.60;100.00;92758.72;5004000;28;20185;-76
2023/05/28 00:16:19;;;;;;;14.17;13.03;;;;;;;15.62;100.00;92746.03;5018377;28;20220;-76
2023/05/28 00:18:45;;;;;;;13.63;12.70;;;;;;;15.69;100.00;92757.66;5000375;28;20268;-76
2023/05/28 00:21:11;;;;;;;14.20;13.20;;;;;;;15.37;100.00;92760.63;5009651;28;20229;-76
2023/05/28 00:23:37;;;;;;;14.00;13.00;;;;;;;15.45;100.00;92741.50;5011770;28;20207;-76
2023/05/28 00:26:02;;;;;;;14.53;13.20;;;;;;;15.75;100.00;92760.94;5016354;28;20215;-75
2023/05/28 00:28:28;;;;;;;14.17;13.07;;;;;;;15.46;100.00;92737.00;5011422;28;20278;-78
2023/05/28 00:30:53;;;;;;;15.87;14.47;;;;;;;15.65;100.00;92753.31;5010500;28;20223;-75
2023/05/28 00:33:19;;;;;;;15.70;14.17;;;;;;;15.90;100.00;92760.50;5010962;28;20218;-76
2023/05/28 00:35:44;;;;;;;16.03;14.63;;;;;;;15.70;100.00;92761.84;5009043;28;20258;-76
2023/05/28 00:38:10;;;;;;;16.50;14.90;;;;;;;14.98;100.00;92744.03;4995350;28;20179;-76
2023/05/28 00:40:35;;;;;;;16.60;15.10;;;;;;;15.34;100.00;92749.94;5015334;28;20229;-76
2023/05/28 00:43:00;;;;;;;17.00;15.50;;;;;;;15.35;100.00;92741.75;4995554;28;20195;-76
2023/05/28 00:45:26;;;;;;;17.70;16.03;;;;;;;15.48;100.00;92724.31;5012885;28;20287;-76
2023/05/28 00:47:52;;;;;;;29.80;23.23;;;;;;;15.71;100.00;92750.25;5005956;28;20191;-76
2023/05/28 00:50:17;;;;;;;21.67;18.93;;;;;;;15.45;100.00;92748.63;5009843;28;20308;-76
2023/05/28 00:52:46;;;;;;;16.80;15.20;;;;;;;15.33;100.00;92725.47;5012097;28;20211;-76
2023/05/28 00:55:15;;;;;;;17.00;15.30;;;;;;;15.12;100.00;92739.47;5017025;28;20247;-76
2023/05/28 00:57:42;;;;;;;17.10;15.50;;;;;;;15.22;100.00;92733.94;5023235;28;20179;-76
2023/05/28 01:00:08;;;;;;;16.27;14.87;;;;;;;15.30;100.00;92741.09;5015279;28;20226;-76
2023/05/28 01:02:35;;;;;;;16.13;14.57;;;;;;;15.53;100.00;92742.63;5017508;28;20179;-76
2023/05/28 01:05:01;;;;;;;17.23;15.63;;;;;;;15.13;100.00;92738.41;5011712;28;20214;-76
2023/05/28 01:07:26;;;;;;;17.70;16.00;;;;;;;15.16;100.00;92735.91;5010397;28;20198;-76
2023/05/28 01:09:53;;;;;;;16.63;15.13;;;;;;;15.13;100.00;92738.41;5011334;28;20246;-76
2023/05/28 01:12:19;;;;;;;16.73;15.23;;;;;;;15.14;100.00;92727.59;5020675;28;20235;-76
2023/05/28 01:14:45;;;;;;;16.13;14.77;;;;;;;14.90;100.00;92723.72;5009661;28;20222;-76
2023/05/28 01:17:11;;;;;;;16.97;15.43;;;;;;;15.36;100.00;92722.22;5014040;28;20209;-76
2023/05/28 01:19:37;;;;;;;16.33;14.70;;;;;;;15.49;100.00;92720.59;5026538;28;20246;-76
2023/05/28 01:22:05;;;;;;;16.17;14.60;;;;;;;15.40;100.00;92717.19;5022855;28;20192;-76
2023/05/28 01:24:39;;;;;;;14.07;12.90;;;;;;;15.50;100.00;92714.28;5012214;28;20227;-76
2023/05/28 01:27:05;;;;;;;15.00;13.73;;;;;;;15.57;100.00;92718.00;5013369;28;20286;-76
2023/05/28 01:29:31;;;;;;;13.40;12.40;;;;;;;15.36;100.00;92706.44;5022171;28;20242;-76
2023/05/28 01:31:56;;;;;;;14.57;13.47;;;;;;;15.21;100.00;92692.94;5009765;28;20211;-75
2023/05/28 01:34:23;;;;;;;14.33;13.07;;;;;;;14.97;100.00;92713.56;5009571;28;20227;-75
2023/05/28 01:36:57;;;;;;;14.30;12.90;;;;;;;15.41;100.00;92703.72;5012766;28;20210;-75
2023/05/28 01:39:25;;;;;;;14.43;13.23;;;;;;;15.50;100.00;92711.66;4998239;28;20282;-75
2023/05/28 01:41:51;;;;;;;14.30;13.00;;;;;;;15.54;100.00;92712.56;5011564;28;20179;-74
2023/05/28 01:44:18;;;;;;;14.27;13.20;;;;;;;15.63;100.00;92729.16;5009316;28;20231;-75
2023/05/28 01:46:46;;;;;;;13.77;12.67;;;;;;;15.69;100.00;92731.34;5009816;28;20214;-75
2023/05/28 01:49:12;;;;;;;13.13;12.03;;;;;;;15.68;100.00;92724.53;5011092;28;20231;-75
2023/05/28 01:51:37;;;;;;;13.53;12.53;;;;;;;15.68;100.00;92713.22;5011174;28;20234;-75
2023/05/28 01:54:03;;;;;;;15.23;13.93;;;;;;;15.49;100.00;92718.75;5014224;28;20243;-75
2023/05/28 01:56:28;;;;;;;14.20;13.10;;;;;;;15.19;100.00;92716.91;5010230;28;20168;-75
2023/05/28 01:58:54;;;;;;;14.63;13.33;;;;;;;15.45;100.00;92706.53;5009522;28;20187;-75
2023/05/28 02:01:29;;;;;;;14.63;13.47;;;;;;;15.53;100.00;92718.94;5007030;28;20180;-75
2023/05/28 02:03:57;;;;;;;14.23;13.20;;;;;;;15.44;100.00;92718.13;5008892;28;20368;-75
2023/05/28 02:06:24;;;;;;;14.03;12.90;;;;;;;15.61;100.00;92712.91;5014186;28;20175;-75
2023/05/28 02:08:50;;;;;;;14.43;13.33;;;;;;;15.62;100.00;92720.50;5017809;28;20183;-75
2023/05/28 02:11:16;;;;;;;13.63;12.53;;;;;;;15.65;100.00;92705.94;5009345;28;20263;-75
2023/05/28 02:13:41;;;;;;;13.70;12.60;;;;;;;15.66;100.00;92707.50;5020021;28;20214;-75
2023/05/28 02:16:07;;;;;;;13.47;12.47;;;;;;;15.54;100.00;92715.22;5018424;28;20230;-75
2023/05/28 02:18:36;;;;;;;13.23;12.13;;;;;;;15.01;100.00;92659.28;5015199;28;20230;-75
2023/05/28 02:21:01;;;;;;;13.73;12.73;;;;;;;15.62;100.00;92717.88;5011589;28;20218;-75
2023/05/28 02:23:27;;;;;;;13.87;12.67;;;;;;;15.60;100.00;92704.25;5015988;28;20176;-75
2023/05/28 02:25:52;;;;;;;13.37;12.30;;;;;;;15.71;100.00;92716.03;5013778;28;20294;-75
2023/05/28 02:28:18;;;;;;;14.07;12.20;;;;;;;15.55;100.00;92720.16;5014697;28;20189;-75
2023/05/28 02:30:43;;;;;;;12.57;11.57;;;;;;;15.68;100.00;92711.38;5014936;28;20215;-75
2023/05/28 02:33:08;;;;;;;13.03;12.13;;;;;;;15.43;100.00;92700.78;5014451;28;20215;-75
2023/05/28 02:35:34;;;;;;;13.70;12.50;;;;;;;15.64;100.00;92718.31;5014050;28;20223;-75
2023/05/28 02:37:59;;;;;;;13.97;12.80;;;;;;;15.70;100.00;92721.59;5018902;28;20195;-75
2023/05/28 02:40:25;;;;;;;14.23;13.13;;;;;;;15.53;100.00;92721.56;5013072;28;20215;-75
2023/05/28 02:42:51;;;;;;;13.77;12.53;;;;;;;15.57;100.00;92720.66;5015463;28;20187;-75
2023/05/28 02:45:16;;;;;;;13.37;12.37;;;;;;;15.41;100.00;92697.69;5012330;28;20912;-75
2023/05/28 02:47:41;;;;;;;14.07;12.87;;;;;;;15.41;100.00;92718.75;5013375;28;20247;-74
2023/05/28 02:50:07;;;;;;;13.60;12.50;;;;;;;15.44;100.00;92704.97;5013086;28;20330;-75
2023/05/28 02:52:33;;;;;;;14.27;13.03;;;;;;;15.74;100.00;92722.53;5016790;28;20290;-75
2023/05/28 02:54:58;;;;;;;13.93;12.73;;;;;;;15.57;100.00;92725.91;5014337;28;20238;-75
2023/05/28 02:57:24;;;;;;;13.43;12.30;;;;;;;15.65;100.00;92719.09;5012001;28;20214;-75
2023/05/28 02:59:49;;;;;;;13.93;12.83;;;;;;;15.41;100.00;92703.72;5013922;28;20756;-75
2023/05/28 03:02:14;;;;;;;13.50;12.30;;;;;;;15.40;100.00;92712.69;5014341;28;20194;-75
2023/05/28 03:04:40;;;;;;;13.67;12.63;;;;;;;15.59;100.00;92701.91;5016509;28;20249;-75
2023/05/28 03:07:05;;;;;;;11.77;10.97;;;;;;;15.74;100.00;92722.53;5011989;28;20187;-75
2023/05/28 03:09:31;;;;;;;13.20;12.23;;;;;;;15.85;100.00;92739.59;5013461;28;20223;-75
2023/05/28 03:11:56;;;;;;;13.43;12.33;;;;;;;15.71;100.00;92720.50;5012260;28;20759;-75
2023/05/28 03:14:21;;;;;;;13.33;12.33;;;;;;;15.03;100.00;92715.00;5014682;28;20255;-76
2023/05/28 03:16:47;;;;;;;12.70;11.70;;;;;;;15.00;100.00;92705.06;4995427;28;20199;-76
2023/05/28 03:19:12;;;;;;;12.80;11.70;;;;;;;15.18;100.00;92735.63;5013875;28;20253;-76
2023/05/28 03:21:38;;;;;;;12.77;11.97;;;;;;;15.32;100.00;92723.94;5017393;28;20187;-76
2023/05/28 03:24:03;;;;;;;11.90;11.00;;;;;;;15.44;100.00;92726.03;5012650;28;20250;-75
2023/05/28 03:26:29;;;;;;;12.87;11.57;;;;;;;15.42;100.00;92696.59;5012590;28;20194;-76
2023/05/28 03:28:55;;;;;;;13.37;12.47;;;;;;;15.61;100.00;92729.47;5012320;28;20239;-76
2023/05/28 03:31:20;;;;;;;12.83;11.83;;;;;;;15.75;100.00;92732.00;5012311;28;20228;-76
2023/05/28 03:33:45;;;;;;;12.50;11.70;;;;;;;15.84;100.00;92730.16;5018230;28;20192;-76
2023/05/28 03:36:11;;;;;;;13.17;12.07;;;;;;;15.70;100.00;92737.41;5011838;28;20211;-75
2023/05/28 03:38:36;;;;;;;12.73;11.53;;;;;;;15.64;100.00;92722.84;5012778;28;20183;-76
2023/05/28 03:41:02;;;;;;;12.17;11.10;;;;;;;15.68;100.00;92721.91;5011818;28;20214;-76
2023/05/28 03:43:27;;;;;;;12.20;11.30;;;;;;;15.74;100.00;92728.56;5011883;28;20199;-75
2023/05/28 03:45:53;;;;;;;11.97;11.10;;;;;;;15.92;100.00;92740.69;5011454;28;20226;-77
2023/05/28 03:48:18;;;;;;;13.03;12.07;;;;;;;15.59;100.00;92710.59;5011872;28;20227;-76
2023/05/28 03:50:44;;;;;;;11.97;11.17;;;;;;;15.51;100.00;92731.59;5011400;28;20233;-76
2023/05/28 03:53:09;;;;;;;15.90;12.37;;;;;;;15.78;100.00;92742.66;5012628;28;20185;-76
2023/05/28 03:55:35;;;;;;;14.33;12.93;;;;;;;15.63;100.00;92721.25;5011375;28;20243;-77
2023/05/28 03:58:02;;;;;;;13.00;12.10;;;;;;;15.06;100.00;92714.38;5012458;28;20194;-75
2023/05/28 04:00:27;;;;;;;13.37;12.33;;;;;;;15.28;100.00;92738.78;4994555;28;20226;-75
2023/05/28 04:02:53;;;;;;;13.90;12.80;;;;;;;15.63;100.00;92748.38;5007531;28;20211;-76
2023/05/28 04:05:18;;;;;;;13.70;12.60;;;;;;;15.66;100.00;92747.75;5014724;28;20297;-75
2023/05/28 04:07:44;;;;;;;13.63;12.63;;;;;;;15.75;100.00;92735.38;5011988;28;20171;-75
2023/05/28 04:10:10;;;;;;;13.10;12.00;;;;;;;15.64;100.00;92736.00;5020700;28;20242;-75
2023/05/28 04:12:35;;;;;;;13.17;12.17;;;;;;;15.68;100.00;92724.53;5015731;28;20206;-75
2023/05/28 04:15:02;;;;;;;14.17;12.73;;;;;;;15.59;100.00;92752.69;5011502;28;20227;-74
2023/05/28 04:17:28;;;;;;;13.90;12.90;;;;;;;15.80;100.00;92747.63;5011804;28;20179;-75
2023/05/28 04:19:54;;;;;;;12.67;11.60;;;;;;;15.89;100.00;92741.28;5011372;28;20279;-75
2023/05/28 04:22:20;;;;;;;13.83;12.80;;;;;;;16.01;100.00;92743.34;5011513;28;20188;-74
2023/05/28 04:24:47;;;;;;;13.47;12.30;;;;;;;16.15;100.00;92749.25;5010079;28;20223;-74
2023/05/28 04:27:13;;;;;;;14.33;13.20;;;;;;;15.97;100.00;92740.53;5011633;28;20254;-75
2023/05/28 04:29:38;;;;;;;14.57;13.07;;;;;;;15.79;100.00;92757.41;5010970;28;20243;-75
2023/05/28 04:32:08;;;;;;;13.77;12.57;;;;;;;15.71;100.00;92728.41;5011167;28;20223;-75
2023/05/28 04:34:34;;;;;;;13.13;12.20;;;;;;;15.60;100.00;92735.03;5024752;28;20221;-75
2023/05/28 04:36:59;;;;;;;14.13;13.00;;;;;;;15.57;100.00;92741.69;5015434;28;20238;-75
2023/05/28 04:39:26;;;;;;;14.83;13.73;;;;;;;15.69;100.00;92755.03;5006948;28;20227;-71
2023/05/28 04:41:53;;;;;;;14.17;13.10;;;;;;;16.10;100.00;92757.28;5011039;28;20195;-76
2023/05/28 04:44:19;;;;;;;16.00;14.57;;;;;;;16.06;100.00;92746.59;5006905;28;20223;-76
2023/05/28 04:46:45;;;;;;;13.47;12.30;;;;;;;16.27;100.00;92757.31;5009779;28;20195;-77
2023/05/28 04:49:12;;;;;;;14.73;13.47;;;;;;;15.88;100.00;92770.56;4989899;28;22364;-73
2023/05/28 04:51:40;;;;;;;13.90;12.77;;;;;;;15.75;100.00;92766.22;5013856;28;20242;-70
2023/05/28 04:54:06;;;;;;;16.40;12.63;;;;;;;15.95;100.00;92761.13;5021948;28;20174;-71
2023/05/28 04:56:32;;;;;;;14.37;13.23;;;;;;;16.26;100.00;92774.22;5016509;28;20214;-72
2023/05/28 04:58:57;;;;;;;14.80;13.57;;;;;;;16.37;100.00;92777.31;5010948;28;20203;-72
2023/05/28 05:01:24;;;;;;;14.07;12.87;;;;;;;16.51;100.00;92775.34;5009916;28;20210;-71
2023/05/28 05:03:50;;;;;;;13.00;12.00;;;;;;;16.53;100.00;92767.91;5014228;28;20251;-71
2023/05/28 05:06:16;;;;;;;14.00;12.80;;;;;;;16.44;100.00;92744.16;5009418;28;20224;-72
2023/05/28 05:08:41;;;;;;;13.03;11.93;;;;;;;16.33;100.00;92750.81;5005220;28;20216;-70
2023/05/28 05:11:08;;;;;;;14.00;12.70;;;;;;;16.55;100.00;92763.84;5007582;28;20269;-71
2023/05/28 05:13:33;;;;;;;15.37;14.07;;;;;;;16.38;100.00;92752.50;5008895;28;20214;-71
2023/05/28 05:16:01;;;;;;;14.63;13.33;;;;;;;16.52;100.00;92759.22;5008579;28;20229;-72
2023/05/28 05:18:26;;;;;;;13.13;12.13;;;;;;;15.96;100.00;92743.47;5006511;28;20219;-71
2023/05/28 05:20:52;;;;;;;13.63;12.53;;;;;;;16.09;100.00;92740.72;5009210;28;20250;-70
2023/05/28 05:23:17;;;;;;;14.50;13.40;;;;;;;16.10;100.00;92746.75;5009016;28;20191;-70
2023/05/28 05:25:43;;;;;;;13.67;12.47;;;;;;;16.57;100.00;92753.78;4994529;28;20231;-71
2023/05/28 05:28:09;;;;;;;13.67;12.67;;;;;;;16.67;100.00;92758.72;5001166;28;20191;-70
2023/05/28 05:30:35;;;;;;;14.23;13.00;;;;;;;16.75;100.00;92752.69;4998548;28;20227;-71
2023/05/28 05:33:01;;;;;;;13.37;12.37;;;;;;;16.55;100.00;92748.03;5010064;28;20294;-70
2023/05/28 05:35:26;;;;;;;14.97;13.63;;;;;;;16.40;100.00;92745.84;5008741;28;21205;-71
2023/05/28 05:37:51;;;;;;;14.57;13.27;;;;;;;16.72;100.00;92760.44;5009415;28;20821;-71
2023/05/28 05:40:17;;;;;;;14.23;12.73;;;;;;;16.75;100.00;92757.16;5004887;28;20248;-71
2023/05/28 05:42:42;;;;;;;13.30;11.90;;;;;;;16.82;100.00;92758.25;5009361;28;20215;-71
2023/05/28 05:45:09;;;;;;;14.23;12.83;;;;;;;16.94;100.00;92761.03;5008414;28;20219;-71
2023/05/28 05:47:35;;;;;;;13.30;12.37;;;;;;;16.99;100.00;92747.69;5008671;28;20230;-71
2023/05/28 05:50:03;;;;;;;11.97;11.07;;;;;;;16.56;100.00;92748.81;5008571;28;20220;-71
2023/05/28 05:52:28;;;;;;;14.10;12.90;;;;;;;16.84;100.00;92758.72;5008807;28;21717;-71
2023/05/28 05:54:53;;;;;;;12.70;11.80;;;;;;;17.11;100.00;92753.09;5007718;28;20219;-70
2023/05/28 05:57:19;;;;;;;13.83;12.77;;;;;;;17.13;100.00;92756.19;5008977;28;20217;-72
2023/05/28 05:59:45;;;;;;;13.03;11.80;;;;;;;16.99;100.00;92755.59;5006252;28;20231;-71
2023/05/28 06:02:10;;;;;;;12.33;11.43;;;;;;;16.49;100.00;92744.03;5009259;28;20191;-71
2023/05/28 06:04:35;;;;;;;13.00;12.00;;;;;;;16.85;100.00;92741.03;5000831;28;20223;-71
2023/05/28 06:07:06;;;;;;;12.87;11.87;;;;;;;16.86;96.92;92766.31;5018559;28;20188;-71
2023/05/28 06:09:32;;;;;;;13.37;12.23;;;;;;;17.14;97.72;92757.72;5009889;28;20246;-72
2023/05/28 06:11:59;;;;;;;12.60;11.70;;;;;;;17.21;100.00;92751.97;5009092;28;20311;-72
2023/05/28 06:14:26;;;;;;;12.60;11.37;;;;;;;17.29;100.00;92741.38;5008495;28;20233;-70
2023/05/28 06:16:52;;;;;;;12.17;11.37;;;;;;;17.57;98.54;92763.66;5009103;28;20179;-71
2023/05/28 06:19:17;;;;;;;11.03;10.27;;;;;;;17.26;95.09;92771.03;5008308;28;20235;-71
2023/05/28 06:21:42;;;;;;;12.90;11.97;;;;;;;17.59;95.37;92779.19;5008547;28;20187;-71
2023/05/28 06:24:08;;;;;;;12.23;11.33;;;;;;;17.51;93.94;92778.13;5007712;28;20190;-72
2023/05/28 06:26:33;;;;;;;11.67;10.87;;;;;;;17.29;96.10;92751.94;5009978;28;20194;-71
2023/05/28 06:28:59;;;;;;;11.77;10.73;;;;;;;17.45;92.93;92782.03;4999736;28;20188;-73
2023/05/28 06:31:24;;;;;;;11.60;10.53;;;;;;;17.39;93.75;92782.50;5008773;28;20219;-70
2023/05/28 06:33:50;;;;;;;11.93;10.93;;;;;;;17.42;92.50;92766.81;5009976;28;20203;-72
2023/05/28 06:36:15;;;;;;;11.67;10.77;;;;;;;17.31;93.18;92764.81;5008012;28;20241;-72
2023/05/28 06:38:41;;;;;;;12.20;11.27;;;;;;;17.39;94.36;92772.72;5008345;28;20200;-72
2023/05/28 06:41:06;;;;;;;11.90;11.10;;;;;;;17.32;95.57;92772.41;5008147;28;20237;-71
2023/05/28 06:43:32;;;;;;;12.67;11.57;;;;;;;16.62;100.00;92761.53;5007315;28;20199;-72
2023/05/28 06:45:57;;;;;;;13.23;12.20;;;;;;;16.93;100.00;92759.50;5007524;28;20215;-75
2023/05/28 06:48:23;;;;;;;13.43;12.27;;;;;;;16.90;100.00;92773.28;4995384;28;20203;-74
2023/05/28 06:50:48;;;;;;;13.90;12.63;;;;;;;16.14;100.00;92768.75;5002141;28;20231;-73
2023/05/28 06:53:13;;;;;;;13.00;12.00;;;;;;;16.62;100.00;92769.47;5003969;28;20179;-71
2023/05/28 06:55:39;;;;;;;13.17;12.17;;;;;;;16.57;100.00;92734.56;5006298;28;20908;-71
2023/05/28 06:58:04;;;;;;;12.87;11.97;;;;;;;16.91;100.00;92785.41;5008238;28;20207;-69
2023/05/28 07:00:30;;;;;;;12.50;11.40;;;;;;;16.96;100.00;92787.88;5014379;28;20674;-70
2023/05/28 07:02:55;;;;;;;12.57;11.67;;;;;;;16.71;100.00;92772.06;5011315;28;20202;-77
2023/05/28 07:05:21;;;;;;;13.67;12.57;;;;;;;16.69;100.00;92779.50;5011574;28;20215;-69
2023/05/28 07:07:46;;;;;;;14.17;12.97;;;;;;;16.77;100.00;92761.06;5011674;28;20250;-70
2023/05/28 07:10:12;;;;;;;14.00;12.90;;;;;;;16.93;100.00;92785.09;5009966;28;20235;-70
2023/05/28 07:12:37;;;;;;;13.47;12.57;;;;;;;16.98;100.00;92777.00;5011606;28;20335;-70
2023/05/28 07:15:04;;;;;;;14.70;13.47;;;;;;;16.25;100.00;92777.91;5010955;28;20230;-71
2023/05/28 07:17:29;;;;;;;14.70;13.60;;;;;;;16.60;100.00;92776.88;5010017;28;20251;-70
2023/05/28 07:19:55;;;;;;;14.60;13.27;;;;;;;16.85;100.00;92777.94;5009674;28;20215;-71
2023/05/28 07:22:20;;;;;;;13.00;12.00;;;;;;;17.13;100.00;92787.84;5008899;28;20195;-70
2023/05/28 07:24:46;;;;;;;12.80;11.73;;;;;;;17.36;99.88;92769.91;5010862;28;20282;-71
2023/05/28 07:27:11;;;;;;;12.20;11.40;;;;;;;17.80;97.93;92782.69;5009384;28;20272;-71
2023/05/28 07:29:36;;;;;;;13.43;12.20;;;;;;;17.76;100.00;92765.16;5010986;28;20223;-71
2023/05/28 07:32:02;;;;;;;12.83;11.83;;;;;;;17.69;99.91;92791.25;5008432;28;20283;-71
2023/05/28 07:34:28;;;;;;;11.73;10.73;;;;;;;17.74;100.00;92785.81;5010070;28;20231;-71
2023/05/28 07:36:53;;;;;;;13.33;12.33;;;;;;;17.80;98.98;92781.91;5011264;28;20184;-71
2023/05/28 07:39:18;;;;;;;11.80;11.10;;;;;;;17.70;99.07;92751.34;5010939;28;20282;-72
2023/05/28 07:41:44;;;;;;;11.63;10.83;;;;;;;17.97;96.28;92776.53;5010853;28;20219;-72
2023/05/28 07:44:09;;;;;;;11.73;10.80;;;;;;;17.35;98.91;92777.06;5010073;28;20187;-75
2023/05/28 07:46:36;;;;;;;11.97;11.17;;;;;;;17.71;96.33;92778.53;5009839;28;20442;-73
2023/05/28 07:49:02;;;;;;;11.97;11.17;;;;;;;17.37;98.46;92766.19;5010009;28;20191;-72
2023/05/28 07:51:27;;;;;;;11.63;10.77;;;;;;;17.61;99.61;92763.81;5010793;28;20926;-72
2023/05/28 07:53:53;;;;;;;12.97;11.77;;;;;;;17.60;100.00;92768.31;5010052;28;20214;-72
2023/05/28 07:56:21;;;;;;;12.47;11.50;;;;;;;17.16;98.13;92763.47;5006870;28;20190;-72
2023/05/28 07:58:46;;;;;;;13.53;12.60;;;;;;;16.85;100.00;92744.44;5011132;28;20191;-72
2023/05/28 08:01:12;;;;;;;11.27;10.57;;;;;;;16.69;100.00;92738.09;5008784;28;20262;-72
2023/05/28 08:03:37;;;;;;;11.43;10.67;;;;;;;17.06;100.00;92731.34;5005871;28;20184;-72
2023/05/28 08:06:03;;;;;;;10.03;9.40;;;;;;;17.62;96.70;92764.59;5010215;28;20223;-71
2023/05/28 08:08:29;;;;;;;11.13;10.43;;;;;;;17.60;96.09;92765.66;5014016;28;20215;-72
2023/05/28 08:10:55;;;;;;;11.00;10.30;;;;;;;17.57;96.43;92765.53;5007984;28;20288;-71
2023/05/28 08:13:20;;;;;;;11.20;10.20;;;;;;;17.60;97.17;92765.66;5008927;28;20206;-77
2023/05/28 08:15:46;;;;;;;12.77;11.77;;;;;;;17.96;97.26;92764.44;5005349;28;20242;-71
2023/05/28 08:18:12;;;;;;;12.53;11.50;;;;;;;18.24;93.88;92760.97;5009743;28;20180;-72
2023/05/28 08:20:38;;;;;;;12.33;11.43;;;;;;;17.96;93.78;92767.06;5009713;28;20235;-71
2023/05/28 08:23:04;;;;;;;12.30;11.50;;;;;;;17.70;95.71;92758.50;5010690;28;20203;-72
2023/05/28 08:25:29;;;;;;;12.47;11.33;;;;;;;18.08;95.09;92767.16;5009915;28;20231;-69
2023/05/28 08:27:55;;;;;;;12.30;11.50;;;;;;;19.12;90.82;92780.84;5009949;28;20193;-72
2023/05/28 08:30:20;;;;;;;12.07;11.17;;;;;;;19.54;84.88;92773.56;5002006;28;20238;-71
2023/05/28 08:32:46;;;;;;;12.23;11.20;;;;;;;19.90;83.50;92767.53;5009456;28;20280;-70
2023/05/28 08:35:12;;;;;;;11.90;11.10;;;;;;;19.99;82.70;92771.59;5009266;28;20231;-71
2023/05/28 08:37:38;;;;;;;11.47;10.67;;;;;;;19.59;82.49;92776.00;5009890;28;20191;-70
2023/05/28 08:40:08;;;;;;;11.77;10.90;;;;;;;19.15;84.43;92774.09;5003931;28;20223;-70
2023/05/28 08:42:33;;;;;;;11.20;10.37;;;;;;;18.70;87.57;92779.34;5009685;28;20175;-71
2023/05/28 08:44:59;;;;;;;10.77;10.07;;;;;;;18.70;86.63;92774.06;5003698;28;20719;-70
2023/05/28 08:47:26;;;;;;;11.20;10.50;;;;;;;18.97;90.20;92772.72;5009758;28;20183;-70
2023/05/28 08:49:53;;;;;;;9.50;8.90;;;;;;;19.49;84.09;92779.06;5009523;28;20222;-71
2023/05/28 08:52:20;;;;;;;10.73;10.07;;;;;;;19.24;82.17;92777.44;5009913;28;20221;-71
2023/05/28 08:54:46;;;;;;;10.30;9.50;;;;;;;18.73;84.60;92765.47;5006809;28;20307;-71
2023/05/28 08:57:12;;;;;;;10.40;9.80;;;;;;;18.87;84.84;92762.53;5009881;28;20203;-71
2023/05/28 08:59:38;;;;;;;10.67;10.03;;;;;;;18.55;87.13;92776.50;5009392;28;20219;-71
2023/05/28 09:02:04;;;;;;;12.13;11.20;;;;;;;18.63;88.55;92763.19;5008553;28;20196;-70
2023/05/28 09:04:30;;;;;;;38.27;27.70;;;;;;;19.16;86.47;92775.63;5006481;28;20337;-70
2023/05/28 09:06:55;;;;;;;25.17;21.60;;;;;;;19.77;85.50;92777.34;5013944;28;20184;-71
2023/05/28 09:09:20;;;;;;;12.07;11.30;;;;;;;19.99;83.85;92770.81;4988218;28;20235;-72
2023/05/28 09:11:47;;;;;;;10.40;9.80;;;;;;;20.86;78.26;92783.31;5001948;28;20694;-71
2023/05/28 09:14:14;;;;;;;11.07;10.33;;;;;;;21.41;74.69;92778.03;5008671;28;21048;-68
2023/05/28 09:16:43;;;;;;;10.37;9.67;;;;;;;21.43;76.32;92770.47;5007031;28;20197;-68
2023/05/28 09:19:10;;;;;;;9.73;9.17;;;;;;;21.59;71.32;92770.47;5004172;28;20209;-69
2023/05/28 09:21:36;;;;;;;16.57;14.63;;;;;;;20.83;73.85;92762.75;5001407;28;20467;-68
2023/05/28 09:24:03;;;;;;;11.90;11.03;;;;;;;20.59;76.02;92755.63;5008816;28;20196;-69
2023/05/28 09:26:33;;;;;;;9.90;9.20;;;;;;;20.18;79.17;92750.66;5009415;28;20189;-68
2023/05/28 09:28:59;;;;;;;10.07;9.30;;;;;;;19.68;80.59;92744.88;5007770;28;20209;-67
2023/05/28 09:31:34;;;;;;;11.70;10.90;;;;;;;19.00;83.83;92735.03;5008418;28;20244;-67
2023/05/28 09:34:04;;;;;;;12.30;11.33;;;;;;;18.63;85.30;92757.91;5001041;28;20184;-69
2023/05/28 09:36:30;;;;;;;11.33;10.33;;;;;;;18.34;88.48;92754.53;5003521;28;20181;-68
2023/05/28 09:38:56;;;;;;;12.03;11.20;;;;;;;17.84;90.92;92751.88;5017459;28;20226;-69
2023/05/28 09:41:22;;;;;;;11.67;10.97;;;;;;;17.79;92.47;92759.97;5008359;28;20188;-69
2023/05/28 09:44:02;;;;;;;12.57;11.77;;;;;;;17.65;91.97;92763.97;5009433;28;20196;-68
2023/05/28 09:46:29;;;;;;;12.17;11.23;;;;;;;17.56;93.48;92770.03;5009048;28;20215;-67
2023/05/28 09:48:55;;;;;;;12.93;11.87;;;;;;;17.52;93.83;92750.66;5009024;28;20251;-69
2023/05/28 09:51:24;;;;;;;12.97;12.07;;;;;;;17.73;93.21;92765.78;5015335;28;20207;-68
2023/05/28 09:53:53;;;;;;;12.47;11.53;;;;;;;17.39;92.24;92759.50;5012898;28;20254;-69
2023/05/28 09:56:20;;;;;;;12.03;11.03;;;;;;;17.35;92.93;92760.47;5009921;28;20275;-69
2023/05/28 09:58:53;;;;;;;12.60;11.50;;;;;;;17.12;96.79;92746.69;5018160;28;20282;-69
2023/05/28 10:01:23;;;;;;;12.20;11.07;;;;;;;17.23;95.60;92760.34;5020419;28;20231;-70
2023/05/28 10:04:08;;;;;;;11.50;10.70;;;;;;;17.17;95.54;92762.38;5009960;28;20295;-67
2023/05/28 10:06:37;;;;;;;12.70;11.60;;;;;;;17.18;93.74;92766.56;5011005;28;20254;-69
2023/05/28 10:09:04;;;;;;;12.50;11.50;;;;;;;17.45;93.14;92773.34;5008839;28;20187;-69
2023/05/28 10:11:36;;;;;;;12.17;11.10;;;;;;;17.51;92.83;92777.34;5009478;28;20226;-69
2023/05/28 10:14:03;;;;;;;10.93;10.23;;;;;;;17.33;95.31;92773.97;5009445;28;20243;-71
2023/05/28 10:16:29;;;;;;;10.13;9.43;;;;;;;17.30;93.23;92765.91;5018593;28;20179;-70
2023/05/28 10:18:56;;;;;;;11.37;10.50;;;;;;;17.45;93.14;92765.41;5010304;28;20190;-75
2023/05/28 10:21:22;;;;;;;11.23;10.40;;;;;;;17.74;91.69;92777.88;5010596;28;20184;-74
2023/05/28 10:23:48;;;;;;;11.97;11.17;;;;;;;17.70;91.96;92772.47;5021818;28;20384;-74
2023/05/28 10:26:15;;;;;;;11.13;10.43;;;;;;;17.69;92.96;92772.78;5009795;28;20227;-74
2023/05/28 10:28:41;;;;;;;11.00;10.03;;;;;;;17.95;91.00;92776.06;5009662;28;20187;-75
2023/05/28 10:31:07;;;;;;;12.63;11.63;;;;;;;17.84;93.36;92759.81;5006742;28;20254;-74
2023/05/28 10:33:40;;;;;;;11.37;10.53;;;;;;;18.11;91.48;92771.78;5016885;28;20188;-74
2023/05/28 10:36:11;;;;;;;12.00;11.20;;;;;;;18.60;88.54;92776.31;5008135;28;20281;-74
2023/05/28 10:38:42;;;;;;;12.00;11.20;;;;;;;18.66;86.07;92770.50;5018328;28;20192;-74
2023/05/28 10:41:08;;;;;;;11.97;11.00;;;;;;;18.27;87.55;92772.78;5011519;28;20271;-74
2023/05/28 10:43:45;;;;;;;12.10;11.20;;;;;;;18.46;87.17;92768.63;5013379;28;20227;-74
2023/05/28 10:46:20;;;;;;;11.10;10.30;;;;;;;18.28;88.15;92759.25;5011009;28;20246;-74
2023/05/28 10:49:08;;;;;;;11.70;10.83;;;;;;;18.19;86.72;92757.75;5015218;28;20175;-74
2023/05/28 10:51:42;;;;;;;12.03;11.17;;;;;;;18.23;88.42;92764.72;5010434;28;20243;-74
2023/05/28 10:54:37;;;;;;;12.70;11.80;;;;;;;17.93;86.42;92765.81;5014508;28;20183;-74
2023/05/28 10:57:10;;;;;;;11.80;11.00;;;;;;;18.00;87.78;92755.53;5011329;28;20195;-74
2023/05/28 10:59:44;;;;;;;13.67;12.60;;;;;;;18.06;88.75;92740.25;5011825;28;22020;-75
2023/05/28 11:02:10;;;;;;;12.73;11.83;;;;;;;18.64;86.10;92756.06;5000229;28;20240;-74
2023/05/28 11:04:36;;;;;;;12.03;11.13;;;;;;;18.47;85.12;92735.03;5016799;28;20219;-75
2023/05/28 11:07:02;;;;;;;13.13;12.13;;;;;;;19.06;84.44;92747.75;5011036;28;20200;-69
2023/05/28 11:09:28;;;;;;;13.60;12.23;;;;;;;19.26;82.26;92746.13;5010922;28;20233;-69